Ardmore, South Dakota
Current Conditions -  °F | °C
As of 5:53 AM on Wednesday 22 Oct 2014 (Local Time) from KCUT Reporting Station
Scattered Clouds Scattered Clouds  
Wind Chill:   Ceiling: Unl
Heat Index:   Visibility: 10mi
Dew Point:   Wind: 3mph
Humidity: 71%   Direction: 330°NNW
Pressure: 29.97"   Gusts: NA
Location:  43.1994°N, 103.759°W
Report Text: KCUT 221153Z AUTO 33003KT 10SM SCT100 08/03 A2997 RMK AO2 SLP108 T00780028 10122 20072 51010
Loading
Personal Weather Stations






























Interactive Weather Map
Tropical Storm Tracking
New forecast layout! Learn more

10-Day Weather Forecast

Advertisements
Track Severe Weather on mobile